sensor_id;sensor_type;location;lat;lon;timestamp;P1;durP1;ratioP1;P2;durP2;ratioP2
8247;SDS011;4164;49.844;8.830;2023-05-21T00:00:57;22.43;;;16.67;;
8247;SDS011;4164;49.844;8.830;2023-05-21T00:03:24;24.40;;;18.20;;
8247;SDS011;4164;49.844;8.830;2023-05-21T00:05:52;21.90;;;16.70;;
8247;SDS011;4164;49.844;8.830;2023-05-21T00:08:17;21.47;;;16.20;;
8247;SDS011;4164;49.844;8.830;2023-05-21T00:10:43;21.50;;;16.43;;
8247;SDS011;4164;49.844;8.830;2023-05-21T00:13:08;26.70;;;17.27;;
8247;SDS011;4164;49.844;8.830;2023-05-21T00:15:34;24.57;;;17.97;;
8247;SDS011;4164;49.844;8.830;2023-05-21T00:18:00;20.17;;;16.23;;
8247;SDS011;4164;49.844;8.830;2023-05-21T00:20:26;23.77;;;16.30;;
8247;SDS011;4164;49.844;8.830;2023-05-21T00:22:53;22.73;;;16.90;;
8247;SDS011;4164;49.844;8.830;2023-05-21T00:25:19;25.17;;;17.33;;
8247;SDS011;4164;49.844;8.830;2023-05-21T00:27:44;23.33;;;16.73;;
8247;SDS011;4164;49.844;8.830;2023-05-21T00:30:10;24.70;;;17.20;;
8247;SDS011;4164;49.844;8.830;2023-05-21T00:32:36;24.20;;;16.93;;
8247;SDS011;4164;49.844;8.830;2023-05-21T00:35:01;24.63;;;17.67;;
8247;SDS011;4164;49.844;8.830;2023-05-21T00:37:27;26.00;;;17.00;;
8247;SDS011;4164;49.844;8.830;2023-05-21T00:39:58;23.47;;;16.70;;
8247;SDS011;4164;49.844;8.830;2023-05-21T00:42:28;22.33;;;17.03;;
8247;SDS011;4164;49.844;8.830;2023-05-21T00:44:54;23.73;;;17.17;;
8247;SDS011;4164;49.844;8.830;2023-05-21T00:47:20;23.63;;;17.80;;
8247;SDS011;4164;49.844;8.830;2023-05-21T00:49:47;22.43;;;16.93;;
8247;SDS011;4164;49.844;8.830;2023-05-21T00:52:15;22.83;;;16.17;;
8247;SDS011;4164;49.844;8.830;2023-05-21T00:54:44;22.33;;;16.80;;
8247;SDS011;4164;49.844;8.830;2023-05-21T00:57:11;23.00;;;16.23;;
8247;SDS011;4164;49.844;8.830;2023-05-21T00:59:37;20.23;;;16.13;;
8247;SDS011;4164;49.844;8.830;2023-05-21T01:02:03;20.60;;;15.87;;
8247;SDS011;4164;49.844;8.830;2023-05-21T01:04:30;25.37;;;16.50;;
8247;SDS011;4164;49.844;8.830;2023-05-21T01:06:56;22.97;;;15.83;;
8247;SDS011;4164;49.844;8.830;2023-05-21T01:09:23;21.40;;;16.00;;
8247;SDS011;4164;49.844;8.830;2023-05-21T01:11:52;20.17;;;15.73;;
8247;SDS011;4164;49.844;8.830;2023-05-21T01:14:18;21.50;;;15.17;;
8247;SDS011;4164;49.844;8.830;2023-05-21T01:16:46;20.73;;;15.37;;
8247;SDS011;4164;49.844;8.830;2023-05-21T01:19:15;22.10;;;15.57;;
8247;SDS011;4164;49.844;8.830;2023-05-21T01:21:44;20.27;;;15.00;;
8247;SDS011;4164;49.844;8.830;2023-05-21T01:24:13;21.53;;;15.17;;
8247;SDS011;4164;49.844;8.830;2023-05-21T01:26:39;22.13;;;15.93;;
8247;SDS011;4164;49.844;8.830;2023-05-21T01:29:07;20.23;;;14.80;;
8247;SDS011;4164;49.844;8.830;2023-05-21T01:34:23;18.97;;;15.47;;
8247;SDS011;4164;49.844;8.830;2023-05-21T01:36:54;22.07;;;15.80;;
8247;SDS011;4164;49.844;8.830;2023-05-21T01:39:30;23.47;;;16.37;;
8247;SDS011;4164;49.844;8.830;2023-05-21T01:42:00;22.93;;;16.40;;
8247;SDS011;4164;49.844;8.830;2023-05-21T01:44:27;22.10;;;15.43;;
8247;SDS011;4164;49.844;8.830;2023-05-21T01:46:54;22.53;;;16.70;;
8247;SDS011;4164;49.844;8.830;2023-05-21T01:49:21;21.37;;;16.47;;
8247;SDS011;4164;49.844;8.830;2023-05-21T01:51:47;25.67;;;16.70;;
8247;SDS011;4164;49.844;8.830;2023-05-21T01:54:13;24.10;;;16.60;;
8247;SDS011;4164;49.844;8.830;2023-05-21T01:56:39;20.80;;;15.47;;
8247;SDS011;4164;49.844;8.830;2023-05-21T01:59:05;23.60;;;17.03;;
8247;SDS011;4164;49.844;8.830;2023-05-21T02:01:30;21.63;;;15.53;;
8247;SDS011;4164;49.844;8.830;2023-05-21T02:03:56;25.30;;;17.33;;
8247;SDS011;4164;49.844;8.830;2023-05-21T02:06:22;23.87;;;16.30;;
8247;SDS011;4164;49.844;8.830;2023-05-21T02:08:47;21.93;;;16.60;;
8247;SDS011;4164;49.844;8.830;2023-05-21T02:11:13;20.50;;;16.23;;
8247;SDS011;4164;49.844;8.830;2023-05-21T02:13:38;21.27;;;16.37;;
8247;SDS011;4164;49.844;8.830;2023-05-21T02:16:06;24.10;;;16.33;;
8247;SDS011;4164;49.844;8.830;2023-05-21T02:18:39;23.87;;;16.17;;
8247;SDS011;4164;49.844;8.830;2023-05-21T02:21:07;24.67;;;15.70;;
8247;SDS011;4164;49.844;8.830;2023-05-21T02:23:34;22.53;;;16.50;;
8247;SDS011;4164;49.844;8.830;2023-05-21T02:26:00;21.47;;;16.70;;
8247;SDS011;4164;49.844;8.830;2023-05-21T02:28:25;22.57;;;16.87;;
8247;SDS011;4164;49.844;8.830;2023-05-21T02:30:51;22.00;;;16.37;;
8247;SDS011;4164;49.844;8.830;2023-05-21T02:33:16;24.87;;;16.00;;
8247;SDS011;4164;49.844;8.830;2023-05-21T02:35:43;20.70;;;15.27;;
8247;SDS011;4164;49.844;8.830;2023-05-21T02:38:09;25.37;;;16.33;;
8247;SDS011;4164;49.844;8.830;2023-05-21T02:40:37;27.30;;;17.23;;
8247;SDS011;4164;49.844;8.830;2023-05-21T02:43:03;21.63;;;15.93;;
8247;SDS011;4164;49.844;8.830;2023-05-21T02:45:28;21.47;;;15.50;;
8247;SDS011;4164;49.844;8.830;2023-05-21T02:47:54;22.87;;;17.17;;
8247;SDS011;4164;49.844;8.830;2023-05-21T02:50:20;22.43;;;16.17;;
8247;SDS011;4164;49.844;8.830;2023-05-21T02:52:46;22.17;;;17.13;;
8247;SDS011;4164;49.844;8.830;2023-05-21T02:55:12;23.50;;;15.60;;
8247;SDS011;4164;49.844;8.830;2023-05-21T02:57:37;21.70;;;15.30;;
8247;SDS011;4164;49.844;8.830;2023-05-21T03:00:03;21.17;;;15.60;;
8247;SDS011;4164;49.844;8.830;2023-05-21T03:02:33;25.33;;;16.73;;
8247;SDS011;4164;49.844;8.830;2023-05-21T03:04:58;21.67;;;16.30;;
8247;SDS011;4164;49.844;8.830;2023-05-21T03:07:27;22.70;;;17.20;;
8247;SDS011;4164;49.844;8.830;2023-05-21T03:09:52;20.53;;;15.73;;
8247;SDS011;4164;49.844;8.830;2023-05-21T03:12:18;23.17;;;16.23;;
8247;SDS011;4164;49.844;8.830;2023-05-21T03:14:43;21.80;;;16.63;;
8247;SDS011;4164;49.844;8.830;2023-05-21T03:17:10;23.30;;;16.80;;
8247;SDS011;4164;49.844;8.830;2023-05-21T03:19:38;21.10;;;16.40;;
8247;SDS011;4164;49.844;8.830;2023-05-21T03:22:07;22.83;;;16.43;;
8247;SDS011;4164;49.844;8.830;2023-05-21T03:24:33;22.23;;;16.17;;
8247;SDS011;4164;49.844;8.830;2023-05-21T03:26:59;20.57;;;14.90;;
8247;SDS011;4164;49.844;8.830;2023-05-21T03:29:30;21.43;;;15.87;;
8247;SDS011;4164;49.844;8.830;2023-05-21T03:31:55;24.43;;;17.17;;
8247;SDS011;4164;49.844;8.830;2023-05-21T03:34:21;21.77;;;16.20;;
8247;SDS011;4164;49.844;8.830;2023-05-21T03:36:48;24.03;;;16.23;;
8247;SDS011;4164;49.844;8.830;2023-05-21T03:39:16;20.57;;;15.57;;
8247;SDS011;4164;49.844;8.830;2023-05-21T03:41:42;21.63;;;15.70;;
8247;SDS011;4164;49.844;8.830;2023-05-21T03:44:08;23.50;;;16.10;;
8247;SDS011;4164;49.844;8.830;2023-05-21T03:46:33;24.00;;;17.30;;
8247;SDS011;4164;49.844;8.830;2023-05-21T03:48:59;22.57;;;15.87;;
8247;SDS011;4164;49.844;8.830;2023-05-21T03:51:25;23.10;;;16.20;;
8247;SDS011;4164;49.844;8.830;2023-05-21T03:53:51;22.03;;;16.23;;
8247;SDS011;4164;49.844;8.830;2023-05-21T03:56:17;24.20;;;16.37;;
8247;SDS011;4164;49.844;8.830;2023-05-21T03:58:43;20.83;;;16.13;;
8247;SDS011;4164;49.844;8.830;2023-05-21T04:01:08;21.97;;;16.20;;
8247;SDS011;4164;49.844;8.830;2023-05-21T04:03:34;22.77;;;16.73;;
8247;SDS011;4164;49.844;8.830;2023-05-21T04:06:01;22.03;;;16.40;;
8247;SDS011;4164;49.844;8.830;2023-05-21T04:08:27;23.23;;;16.40;;
8247;SDS011;4164;49.844;8.830;2023-05-21T04:10:52;23.93;;;16.83;;
8247;SDS011;4164;49.844;8.830;2023-05-21T04:13:18;22.97;;;15.83;;
8247;SDS011;4164;49.844;8.830;2023-05-21T04:15:44;25.33;;;16.50;;
8247;SDS011;4164;49.844;8.830;2023-05-21T04:18:10;21.67;;;15.93;;
8247;SDS011;4164;49.844;8.830;2023-05-21T04:20:44;25.93;;;17.00;;
8247;SDS011;4164;49.844;8.830;2023-05-21T04:23:10;24.17;;;16.57;;
8247;SDS011;4164;49.844;8.830;2023-05-21T04:25:35;21.43;;;16.10;;
8247;SDS011;4164;49.844;8.830;2023-05-21T04:28:02;20.80;;;15.80;;
8247;SDS011;4164;49.844;8.830;2023-05-21T04:30:28;25.97;;;17.20;;
8247;SDS011;4164;49.844;8.830;2023-05-21T04:32:54;24.93;;;17.27;;
8247;SDS011;4164;49.844;8.830;2023-05-21T04:35:19;22.43;;;15.73;;
8247;SDS011;4164;49.844;8.830;2023-05-21T04:37:45;23.13;;;16.60;;
8247;SDS011;4164;49.844;8.830;2023-05-21T04:40:11;24.33;;;17.33;;
8247;SDS011;4164;49.844;8.830;2023-05-21T04:42:43;21.53;;;15.67;;
8247;SDS011;4164;49.844;8.830;2023-05-21T04:45:12;21.10;;;15.40;;
8247;SDS011;4164;49.844;8.830;2023-05-21T04:47:38;21.90;;;16.77;;
8247;SDS011;4164;49.844;8.830;2023-05-21T04:50:03;21.73;;;16.73;;
8247;SDS011;4164;49.844;8.830;2023-05-21T04:52:30;23.07;;;15.67;;
8247;SDS011;4164;49.844;8.830;2023-05-21T04:54:56;22.17;;;16.57;;
8247;SDS011;4164;49.844;8.830;2023-05-21T04:57:21;22.17;;;15.97;;
8247;SDS011;4164;49.844;8.830;2023-05-21T04:59:48;26.93;;;17.50;;
8247;SDS011;4164;49.844;8.830;2023-05-21T05:02:14;22.77;;;16.30;;
8247;SDS011;4164;49.844;8.830;2023-05-21T05:04:39;22.37;;;15.90;;
8247;SDS011;4164;49.844;8.830;2023-05-21T05:07:07;24.27;;;17.90;;
8247;SDS011;4164;49.844;8.830;2023-05-21T05:09:33;24.83;;;17.37;;
8247;SDS011;4164;49.844;8.830;2023-05-21T05:11:58;24.37;;;16.70;;
8247;SDS011;4164;49.844;8.830;2023-05-21T05:14:24;22.27;;;16.73;;
8247;SDS011;4164;49.844;8.830;2023-05-21T05:16:50;29.17;;;16.77;;
8247;SDS011;4164;49.844;8.830;2023-05-21T05:19:15;26.67;;;17.27;;
8247;SDS011;4164;49.844;8.830;2023-05-21T05:21:41;21.27;;;16.50;;
8247;SDS011;4164;49.844;8.830;2023-05-21T05:24:06;22.20;;;16.37;;
8247;SDS011;4164;49.844;8.830;2023-05-21T05:26:32;24.30;;;16.10;;
8247;SDS011;4164;49.844;8.830;2023-05-21T05:28:57;23.20;;;16.70;;
8247;SDS011;4164;49.844;8.830;2023-05-21T05:31:23;22.40;;;16.27;;
8247;SDS011;4164;49.844;8.830;2023-05-21T05:33:48;24.73;;;15.90;;
8247;SDS011;4164;49.844;8.830;2023-05-21T05:36:14;22.90;;;15.60;;
8247;SDS011;4164;49.844;8.830;2023-05-21T05:38:40;22.47;;;16.20;;
8247;SDS011;4164;49.844;8.830;2023-05-21T05:41:05;20.60;;;16.17;;
8247;SDS011;4164;49.844;8.830;2023-05-21T05:43:31;20.60;;;15.03;;
8247;SDS011;4164;49.844;8.830;2023-05-21T05:45:56;20.67;;;15.13;;
8247;SDS011;4164;49.844;8.830;2023-05-21T05:48:22;19.60;;;14.70;;
8247;SDS011;4164;49.844;8.830;2023-05-21T05:50:48;18.10;;;14.13;;
8247;SDS011;4164;49.844;8.830;2023-05-21T05:53:13;22.27;;;15.67;;
8247;SDS011;4164;49.844;8.830;2023-05-21T05:55:39;17.60;;;14.77;;
8247;SDS011;4164;49.844;8.830;2023-05-21T05:58:05;19.07;;;15.07;;
8247;SDS011;4164;49.844;8.830;2023-05-21T06:00:31;16.57;;;13.60;;
8247;SDS011;4164;49.844;8.830;2023-05-21T06:02:56;18.57;;;14.57;;
8247;SDS011;4164;49.844;8.830;2023-05-21T06:05:22;19.67;;;14.13;;
8247;SDS011;4164;49.844;8.830;2023-05-21T06:07:48;22.63;;;15.03;;
8247;SDS011;4164;49.844;8.830;2023-05-21T06:10:13;18.33;;;13.40;;
8247;SDS011;4164;49.844;8.830;2023-05-21T06:12:39;16.57;;;12.70;;
8247;SDS011;4164;49.844;8.830;2023-05-21T06:15:04;16.17;;;13.87;;
8247;SDS011;4164;49.844;8.830;2023-05-21T06:17:30;19.77;;;13.90;;
8247;SDS011;4164;49.844;8.830;2023-05-21T06:19:56;18.70;;;14.27;;
8247;SDS011;4164;49.844;8.830;2023-05-21T06:22:21;18.20;;;13.30;;
8247;SDS011;4164;49.844;8.830;2023-05-21T06:24:47;19.70;;;14.20;;
8247;SDS011;4164;49.844;8.830;2023-05-21T06:27:12;18.90;;;12.73;;
8247;SDS011;4164;49.844;8.830;2023-05-21T06:29:38;14.33;;;12.13;;
8247;SDS011;4164;49.844;8.830;2023-05-21T06:32:05;18.17;;;13.80;;
8247;SDS011;4164;49.844;8.830;2023-05-21T06:34:31;19.07;;;13.23;;
8247;SDS011;4164;49.844;8.830;2023-05-21T06:36:56;16.63;;;12.13;;
8247;SDS011;4164;49.844;8.830;2023-05-21T06:39:22;20.33;;;13.57;;
8247;SDS011;4164;49.844;8.830;2023-05-21T06:41:48;15.73;;;11.87;;
8247;SDS011;4164;49.844;8.830;2023-05-21T06:44:14;16.20;;;12.43;;
8247;SDS011;4164;49.844;8.830;2023-05-21T06:46:40;16.77;;;13.37;;
8247;SDS011;4164;49.844;8.830;2023-05-21T06:49:06;16.57;;;13.53;;
8247;SDS011;4164;49.844;8.830;2023-05-21T06:51:32;16.50;;;13.27;;
8247;SDS011;4164;49.844;8.830;2023-05-21T06:53:57;17.47;;;12.37;;
8247;SDS011;4164;49.844;8.830;2023-05-21T06:56:23;19.07;;;12.63;;
8247;SDS011;4164;49.844;8.830;2023-05-21T06:58:49;15.17;;;12.03;;
8247;SDS011;4164;49.844;8.830;2023-05-21T07:01:14;17.00;;;12.30;;
8247;SDS011;4164;49.844;8.830;2023-05-21T07:03:40;15.17;;;12.70;;
8247;SDS011;4164;49.844;8.830;2023-05-21T07:06:06;18.47;;;12.60;;
8247;SDS011;4164;49.844;8.830;2023-05-21T07:08:31;14.97;;;12.50;;
8247;SDS011;4164;49.844;8.830;2023-05-21T07:10:57;15.43;;;13.10;;
8247;SDS011;4164;49.844;8.830;2023-05-21T07:13:22;19.80;;;12.60;;
8247;SDS011;4164;49.844;8.830;2023-05-21T07:15:48;14.87;;;12.50;;
8247;SDS011;4164;49.844;8.830;2023-05-21T07:18:13;16.37;;;13.00;;
8247;SDS011;4164;49.844;8.830;2023-05-21T07:20:40;17.63;;;13.40;;
8247;SDS011;4164;49.844;8.830;2023-05-21T07:23:06;15.80;;;13.63;;
8247;SDS011;4164;49.844;8.830;2023-05-21T07:25:31;16.60;;;12.57;;
8247;SDS011;4164;49.844;8.830;2023-05-21T07:27:57;17.80;;;12.57;;
8247;SDS011;4164;49.844;8.830;2023-05-21T07:30:22;15.67;;;12.57;;
8247;SDS011;4164;49.844;8.830;2023-05-21T07:32:48;17.47;;;12.43;;
8247;SDS011;4164;49.844;8.830;2023-05-21T07:35:13;15.10;;;12.47;;
8247;SDS011;4164;49.844;8.830;2023-05-21T07:37:39;14.73;;;11.87;;
8247;SDS011;4164;49.844;8.830;2023-05-21T07:40:05;17.17;;;13.03;;
8247;SDS011;4164;49.844;8.830;2023-05-21T07:42:31;17.37;;;12.57;;
8247;SDS011;4164;49.844;8.830;2023-05-21T07:44:57;14.67;;;12.53;;
8247;SDS011;4164;49.844;8.830;2023-05-21T07:47:22;18.63;;;12.73;;
8247;SDS011;4164;49.844;8.830;2023-05-21T07:49:48;15.50;;;12.20;;
8247;SDS011;4164;49.844;8.830;2023-05-21T07:52:13;16.83;;;12.73;;
8247;SDS011;4164;49.844;8.830;2023-05-21T07:54:39;14.60;;;12.07;;
8247;SDS011;4164;49.844;8.830;2023-05-21T07:57:05;15.00;;;12.13;;
8247;SDS011;4164;49.844;8.830;2023-05-21T07:59:30;14.87;;;12.43;;
8247;SDS011;4164;49.844;8.830;2023-05-21T08:01:57;14.13;;;11.83;;
8247;SDS011;4164;49.844;8.830;2023-05-21T08:04:23;16.97;;;12.53;;
8247;SDS011;4164;49.844;8.830;2023-05-21T08:06:48;14.13;;;11.93;;
8247;SDS011;4164;49.844;8.830;2023-05-21T08:09:14;13.47;;;11.67;;
8247;SDS011;4164;49.844;8.830;2023-05-21T08:11:40;14.20;;;11.90;;
8247;SDS011;4164;49.844;8.830;2023-05-21T08:14:06;13.87;;;11.73;;
8247;SDS011;4164;49.844;8.830;2023-05-21T08:16:31;14.50;;;10.23;;
8247;SDS011;4164;49.844;8.830;2023-05-21T08:18:57;10.80;;;9.70;;
8247;SDS011;4164;49.844;8.830;2023-05-21T08:21:22;10.93;;;9.87;;
8247;SDS011;4164;49.844;8.830;2023-05-21T08:23:48;9.93;;;8.93;;
8247;SDS011;4164;49.844;8.830;2023-05-21T08:26:16;12.57;;;9.73;;
8247;SDS011;4164;49.844;8.830;2023-05-21T08:28:41;10.97;;;9.80;;
8247;SDS011;4164;49.844;8.830;2023-05-21T08:31:07;10.53;;;9.43;;
8247;SDS011;4164;49.844;8.830;2023-05-21T08:33:36;10.03;;;8.97;;
8247;SDS011;4164;49.844;8.830;2023-05-21T08:36:03;12.93;;;8.70;;
8247;SDS011;4164;49.844;8.830;2023-05-21T08:38:29;10.10;;;9.10;;
8247;SDS011;4164;49.844;8.830;2023-05-21T08:40:55;10.53;;;9.17;;
8247;SDS011;4164;49.844;8.830;2023-05-21T08:43:22;9.77;;;8.77;;
8247;SDS011;4164;49.844;8.830;2023-05-21T08:45:54;10.47;;;9.37;;
8247;SDS011;4164;49.844;8.830;2023-05-21T08:48:25;10.83;;;9.47;;
8247;SDS011;4164;49.844;8.830;2023-05-21T08:50:52;10.57;;;9.13;;
8247;SDS011;4164;49.844;8.830;2023-05-21T08:53:21;10.93;;;9.07;;
8247;SDS011;4164;49.844;8.830;2023-05-21T08:55:48;10.83;;;9.73;;
8247;SDS011;4164;49.844;8.830;2023-05-21T08:58:16;12.37;;;8.97;;
8247;SDS011;4164;49.844;8.830;2023-05-21T09:00:42;10.40;;;9.40;;
8247;SDS011;4164;49.844;8.830;2023-05-21T09:03:09;11.63;;;8.90;;
8247;SDS011;4164;49.844;8.830;2023-05-21T09:05:39;10.30;;;9.23;;
8247;SDS011;4164;49.844;8.830;2023-05-21T09:08:06;9.37;;;8.40;;
8247;SDS011;4164;49.844;8.830;2023-05-21T09:10:44;11.27;;;8.60;;
8247;SDS011;4164;49.844;8.830;2023-05-21T09:13:13;10.50;;;9.30;;
8247;SDS011;4164;49.844;8.830;2023-05-21T09:15:41;10.70;;;9.03;;
8247;SDS011;4164;49.844;8.830;2023-05-21T09:18:06;10.20;;;9.03;;
8247;SDS011;4164;49.844;8.830;2023-05-21T09:20:32;10.40;;;9.30;;
8247;SDS011;4164;49.844;8.830;2023-05-21T09:23:02;9.53;;;8.40;;
8247;SDS011;4164;49.844;8.830;2023-05-21T09:25:29;10.47;;;8.57;;
8247;SDS011;4164;49.844;8.830;2023-05-21T09:27:55;11.53;;;9.10;;
8247;SDS011;4164;49.844;8.830;2023-05-21T09:30:21;9.63;;;8.53;;
8247;SDS011;4164;49.844;8.830;2023-05-21T09:32:51;10.13;;;8.70;;
8247;SDS011;4164;49.844;8.830;2023-05-21T09:35:25;11.77;;;8.67;;
8247;SDS011;4164;49.844;8.830;2023-05-21T09:37:51;10.00;;;8.33;;
8247;SDS011;4164;49.844;8.830;2023-05-21T09:40:18;9.93;;;8.93;;
8247;SDS011;4164;49.844;8.830;2023-05-21T09:42:48;9.50;;;8.50;;
8247;SDS011;4164;49.844;8.830;2023-05-21T09:45:25;9.30;;;8.33;;
8247;SDS011;4164;49.844;8.830;2023-05-21T09:47:51;9.33;;;7.97;;
8247;SDS011;4164;49.844;8.830;2023-05-21T09:52:45;10.97;;;9.03;;
8247;SDS011;4164;49.844;8.830;2023-05-21T09:55:12;11.53;;;8.57;;
8247;SDS011;4164;49.844;8.830;2023-05-21T09:57:45;10.30;;;8.73;;
8247;SDS011;4164;49.844;8.830;2023-05-21T10:00:18;11.13;;;8.63;;
8247;SDS011;4164;49.844;8.830;2023-05-21T10:02:45;29.43;;;18.77;;
8247;SDS011;4164;49.844;8.830;2023-05-21T10:05:12;12.07;;;10.73;;
8247;SDS011;4164;49.844;8.830;2023-05-21T10:07:40;12.10;;;8.90;;
8247;SDS011;4164;49.844;8.830;2023-05-21T10:10:13;11.43;;;8.73;;
8247;SDS011;4164;49.844;8.830;2023-05-21T10:12:46;11.80;;;8.83;;
8247;SDS011;4164;49.844;8.830;2023-05-21T10:15:14;10.80;;;9.13;;
8247;SDS011;4164;49.844;8.830;2023-05-21T10:17:42;9.90;;;8.73;;
8247;SDS011;4164;49.844;8.830;2023-05-21T10:20:10;10.33;;;8.73;;
8247;SDS011;4164;49.844;8.830;2023-05-21T10:22:36;9.87;;;8.80;;
8247;SDS011;4164;49.844;8.830;2023-05-21T10:25:03;10.53;;;8.60;;
8247;SDS011;4164;49.844;8.830;2023-05-21T10:27:30;10.10;;;8.43;;
8247;SDS011;4164;49.844;8.830;2023-05-21T10:29:58;9.53;;;8.20;;
8247;SDS011;4164;49.844;8.830;2023-05-21T10:32:24;11.97;;;8.90;;
8247;SDS011;4164;49.844;8.830;2023-05-21T10:34:52;8.73;;;7.80;;
8247;SDS011;4164;49.844;8.830;2023-05-21T10:37:19;9.83;;;8.60;;
8247;SDS011;4164;49.844;8.830;2023-05-21T10:39:47;10.70;;;8.87;;
8247;SDS011;4164;49.844;8.830;2023-05-21T10:45:30;9.37;;;8.33;;
8247;SDS011;4164;49.844;8.830;2023-05-21T10:59:45;9.57;;;8.03;;
8247;SDS011;4164;49.844;8.830;2023-05-21T11:02:12;9.17;;;8.23;;
8247;SDS011;4164;49.844;8.830;2023-05-21T11:04:39;9.07;;;8.20;;
8247;SDS011;4164;49.844;8.830;2023-05-21T11:07:09;9.50;;;8.50;;
8247;SDS011;4164;49.844;8.830;2023-05-21T11:09:36;9.97;;;8.43;;
8247;SDS011;4164;49.844;8.830;2023-05-21T11:12:02;8.67;;;7.83;;
8247;SDS011;4164;49.844;8.830;2023-05-21T11:19:37;9.37;;;8.37;;
8247;SDS011;4164;49.844;8.830;2023-05-21T11:22:23;11.17;;;8.97;;
8247;SDS011;4164;49.844;8.830;2023-05-21T11:24:50;9.40;;;8.37;;
8247;SDS011;4164;49.844;8.830;2023-05-21T11:30:02;9.50;;;8.47;;
8247;SDS011;4164;49.844;8.830;2023-05-21T11:35:35;8.77;;;7.83;;
8247;SDS011;4164;49.844;8.830;2023-05-21T11:38:10;8.80;;;7.87;;
8247;SDS011;4164;49.844;8.830;2023-05-21T11:40:35;7.47;;;6.77;;
8247;SDS011;4164;49.844;8.830;2023-05-21T11:43:01;8.63;;;7.43;;
8247;SDS011;4164;49.844;8.830;2023-05-21T11:45:28;10.43;;;7.63;;
8247;SDS011;4164;49.844;8.830;2023-05-21T11:47:55;8.17;;;7.47;;
8247;SDS011;4164;49.844;8.830;2023-05-21T11:50:21;10.63;;;7.70;;
8247;SDS011;4164;49.844;8.830;2023-05-21T11:52:47;8.27;;;7.47;;
8247;SDS011;4164;49.844;8.830;2023-05-21T11:55:13;7.93;;;7.23;;
8247;SDS011;4164;49.844;8.830;2023-05-21T11:57:42;8.90;;;7.03;;
8247;SDS011;4164;49.844;8.830;2023-05-21T12:00:12;7.87;;;7.20;;
8247;SDS011;4164;49.844;8.830;2023-05-21T12:02:43;7.90;;;7.20;;
8247;SDS011;4164;49.844;8.830;2023-05-21T12:05:14;7.83;;;7.03;;
8247;SDS011;4164;49.844;8.830;2023-05-21T12:07:40;10.03;;;7.40;;
8247;SDS011;4164;49.844;8.830;2023-05-21T12:10:06;7.73;;;7.03;;
8247;SDS011;4164;49.844;8.830;2023-05-21T12:12:32;9.97;;;7.77;;
8247;SDS011;4164;49.844;8.830;2023-05-21T12:14:58;7.87;;;7.17;;
8247;SDS011;4164;49.844;8.830;2023-05-21T12:17:26;8.43;;;7.50;;
8247;SDS011;4164;49.844;8.830;2023-05-21T12:19:55;8.00;;;7.27;;
8247;SDS011;4164;49.844;8.830;2023-05-21T12:22:22;8.37;;;7.53;;
8247;SDS011;4164;49.844;8.830;2023-05-21T12:24:48;8.67;;;7.27;;
8247;SDS011;4164;49.844;8.830;2023-05-21T12:27:15;7.87;;;7.13;;
8247;SDS011;4164;49.844;8.830;2023-05-21T12:29:42;7.87;;;7.20;;
8247;SDS011;4164;49.844;8.830;2023-05-21T12:32:10;8.20;;;7.43;;
8247;SDS011;4164;49.844;8.830;2023-05-21T12:34:41;8.10;;;7.30;;
8247;SDS011;4164;49.844;8.830;2023-05-21T12:37:13;8.43;;;7.63;;
8247;SDS011;4164;49.844;8.830;2023-05-21T12:39:56;9.50;;;7.93;;
8247;SDS011;4164;49.844;8.830;2023-05-21T12:42:31;10.93;;;7.80;;
8247;SDS011;4164;49.844;8.830;2023-05-21T12:44:59;7.63;;;7.03;;
8247;SDS011;4164;49.844;8.830;2023-05-21T12:47:29;7.97;;;7.17;;
8247;SDS011;4164;49.844;8.830;2023-05-21T12:49:56;8.47;;;7.77;;
8247;SDS011;4164;49.844;8.830;2023-05-21T12:52:23;8.47;;;7.67;;
8247;SDS011;4164;49.844;8.830;2023-05-21T12:54:52;9.40;;;7.37;;
8247;SDS011;4164;49.844;8.830;2023-05-21T12:57:21;8.87;;;8.07;;
8247;SDS011;4164;49.844;8.830;2023-05-21T12:59:50;10.80;;;8.10;;
8247;SDS011;4164;49.844;8.830;2023-05-21T13:02:18;10.97;;;7.97;;
8247;SDS011;4164;49.844;8.830;2023-05-21T13:04:57;8.37;;;7.07;;
8247;SDS011;4164;49.844;8.830;2023-05-21T13:07:24;8.03;;;7.33;;
8247;SDS011;4164;49.844;8.830;2023-05-21T13:09:51;7.50;;;6.73;;
8247;SDS011;4164;49.844;8.830;2023-05-21T13:12:21;7.20;;;6.50;;
8247;SDS011;4164;49.844;8.830;2023-05-21T13:14:50;7.47;;;6.77;;
8247;SDS011;4164;49.844;8.830;2023-05-21T13:17:18;7.90;;;7.10;;
8247;SDS011;4164;49.844;8.830;2023-05-21T13:22:36;7.57;;;6.87;;
8247;SDS011;4164;49.844;8.830;2023-05-21T13:25:06;7.17;;;6.47;;
8247;SDS011;4164;49.844;8.830;2023-05-21T13:27:33;8.07;;;6.30;;
8247;SDS011;4164;49.844;8.830;2023-05-21T13:29:58;7.03;;;6.03;;
8247;SDS011;4164;49.844;8.830;2023-05-21T13:32:24;6.83;;;6.20;;
8247;SDS011;4164;49.844;8.830;2023-05-21T13:34:50;7.10;;;6.50;;
8247;SDS011;4164;49.844;8.830;2023-05-21T13:37:16;8.07;;;6.60;;
8247;SDS011;4164;49.844;8.830;2023-05-21T13:39:41;7.03;;;6.40;;
8247;SDS011;4164;49.844;8.830;2023-05-21T13:42:07;8.23;;;6.17;;
8247;SDS011;4164;49.844;8.830;2023-05-21T13:44:36;7.80;;;7.10;;
8247;SDS011;4164;49.844;8.830;2023-05-21T13:47:02;7.57;;;6.17;;
8247;SDS011;4164;49.844;8.830;2023-05-21T13:49:28;9.40;;;7.10;;
8247;SDS011;4164;49.844;8.830;2023-05-21T13:51:53;8.43;;;6.40;;
8247;SDS011;4164;49.844;8.830;2023-05-21T13:54:19;7.70;;;6.90;;
8247;SDS011;4164;49.844;8.830;2023-05-21T13:56:45;8.17;;;6.90;;
8247;SDS011;4164;49.844;8.830;2023-05-21T13:59:11;8.30;;;7.13;;
8247;SDS011;4164;49.844;8.830;2023-05-21T14:01:36;7.67;;;6.97;;
8247;SDS011;4164;49.844;8.830;2023-05-21T14:04:02;7.87;;;6.50;;
8247;SDS011;4164;49.844;8.830;2023-05-21T14:06:30;10.37;;;7.40;;
8247;SDS011;4164;49.844;8.830;2023-05-21T14:08:56;8.03;;;6.23;;
8247;SDS011;4164;49.844;8.830;2023-05-21T14:11:25;7.40;;;6.77;;
8247;SDS011;4164;49.844;8.830;2023-05-21T14:13:52;8.97;;;6.67;;
8247;SDS011;4164;49.844;8.830;2023-05-21T14:16:18;8.70;;;7.23;;
8247;SDS011;4164;49.844;8.830;2023-05-21T14:18:44;7.93;;;7.00;;
8247;SDS011;4164;49.844;8.830;2023-05-21T14:21:10;7.63;;;6.67;;
8247;SDS011;4164;49.844;8.830;2023-05-21T14:23:35;7.43;;;6.73;;
8247;SDS011;4164;49.844;8.830;2023-05-21T14:26:01;7.47;;;6.77;;
8247;SDS011;4164;49.844;8.830;2023-05-21T14:28:26;7.00;;;6.40;;
8247;SDS011;4164;49.844;8.830;2023-05-21T14:30:52;7.03;;;6.33;;
8247;SDS011;4164;49.844;8.830;2023-05-21T14:33:17;9.23;;;7.17;;
8247;SDS011;4164;49.844;8.830;2023-05-21T14:35:43;7.73;;;7.03;;
8247;SDS011;4164;49.844;8.830;2023-05-21T14:38:09;8.37;;;7.23;;
8247;SDS011;4164;49.844;8.830;2023-05-21T14:40:35;8.47;;;7.13;;
8247;SDS011;4164;49.844;8.830;2023-05-21T14:43:00;10.10;;;6.67;;
8247;SDS011;4164;49.844;8.830;2023-05-21T14:45:26;8.97;;;7.23;;
8247;SDS011;4164;49.844;8.830;2023-05-21T14:47:52;7.70;;;7.00;;
8247;SDS011;4164;49.844;8.830;2023-05-21T14:50:17;7.53;;;6.77;;
8247;SDS011;4164;49.844;8.830;2023-05-21T14:52:44;8.93;;;7.00;;
8247;SDS011;4164;49.844;8.830;2023-05-21T14:55:09;7.63;;;6.83;;
8247;SDS011;4164;49.844;8.830;2023-05-21T14:57:36;7.63;;;6.93;;
8247;SDS011;4164;49.844;8.830;2023-05-21T15:00:01;8.17;;;7.37;;
8247;SDS011;4164;49.844;8.830;2023-05-21T15:02:27;7.30;;;6.60;;
8247;SDS011;4164;49.844;8.830;2023-05-21T15:04:53;7.03;;;6.33;;
8247;SDS011;4164;49.844;8.830;2023-05-21T15:07:20;7.57;;;6.83;;
8247;SDS011;4164;49.844;8.830;2023-05-21T15:09:45;8.03;;;7.23;;
8247;SDS011;4164;49.844;8.830;2023-05-21T15:12:11;7.50;;;6.77;;
8247;SDS011;4164;49.844;8.830;2023-05-21T15:14:36;7.40;;;6.70;;
8247;SDS011;4164;49.844;8.830;2023-05-21T15:17:02;8.67;;;6.57;;
8247;SDS011;4164;49.844;8.830;2023-05-21T15:19:27;8.17;;;7.30;;
8247;SDS011;4164;49.844;8.830;2023-05-21T15:21:53;7.43;;;6.73;;
8247;SDS011;4164;49.844;8.830;2023-05-21T15:24:19;8.23;;;6.90;;
8247;SDS011;4164;49.844;8.830;2023-05-21T15:26:44;7.67;;;6.80;;
8247;SDS011;4164;49.844;8.830;2023-05-21T15:29:10;8.20;;;7.03;;